sensor_id;sensor_type;location;lat;lon;timestamp;pressure;altitude;pressure_sealevel;temperature;humidity
73101;BME280;61288;53.446;-2.266;2023-08-30T00:00:46;101420.44;;;11.62;100.00
73101;BME280;61288;53.446;-2.266;2023-08-30T00:03:13;101425.66;;;11.61;100.00
73101;BME280;61288;53.446;-2.266;2023-08-30T00:05:40;101432.66;;;11.59;100.00
73101;BME280;61288;53.446;-2.266;2023-08-30T00:08:06;101423.31;;;11.53;100.00
73101;BME280;61288;53.446;-2.266;2023-08-30T00:10:32;101426.91;;;11.49;100.00
73101;BME280;61288;53.446;-2.266;2023-08-30T00:12:57;101422.69;;;11.46;100.00
73101;BME280;61288;53.446;-2.266;2023-08-30T00:15:23;101424.47;;;11.44;100.00
73101;BME280;61288;53.446;-2.266;2023-08-30T00:17:49;101427.13;;;11.41;100.00
73101;BME280;61288;53.446;-2.266;2023-08-30T00:20:18;101426.41;;;11.37;100.00
73101;BME280;61288;53.446;-2.266;2023-08-30T00:22:43;101429.94;;;11.35;100.00
73101;BME280;61288;53.446;-2.266;2023-08-30T00:25:09;101437.81;;;11.32;100.00
73101;BME280;61288;53.446;-2.266;2023-08-30T00:27:34;101439.63;;;11.30;100.00
73101;BME280;61288;53.446;-2.266;2023-08-30T00:29:59;101438.78;;;11.29;100.00
73101;BME280;61288;53.446;-2.266;2023-08-30T00:32:25;101442.31;;;11.26;100.00
73101;BME280;61288;53.446;-2.266;2023-08-30T00:34:51;101434.63;;;11.23;100.00
73101;BME280;61288;53.446;-2.266;2023-08-30T00:37:17;101435.53;;;11.22;100.00
73101;BME280;61288;53.446;-2.266;2023-08-30T00:39:42;101433.03;;;11.19;100.00
73101;BME280;61288;53.446;-2.266;2023-08-30T00:42:08;101432.25;;;11.17;100.00
73101;BME280;61288;53.446;-2.266;2023-08-30T00:44:34;101434.03;;;11.15;100.00
73101;BME280;61288;53.446;-2.266;2023-08-30T00:47:01;101435.81;;;11.13;100.00
73101;BME280;61288;53.446;-2.266;2023-08-30T00:49:29;101444.44;;;11.13;100.00
73101;BME280;61288;53.446;-2.266;2023-08-30T00:51:57;101451.31;;;11.15;100.00
73101;BME280;61288;53.446;-2.266;2023-08-30T00:54:24;101452.19;;;11.15;100.00
73101;BME280;61288;53.446;-2.266;2023-08-30T00:56:49;101452.13;;;11.17;100.00
73101;BME280;61288;53.446;-2.266;2023-08-30T00:59:16;101458.19;;;11.17;100.00
73101;BME280;61288;53.446;-2.266;2023-08-30T01:01:41;101457.22;;;11.20;100.00
73101;BME280;61288;53.446;-2.266;2023-08-30T01:04:07;101458.91;;;11.21;100.00
73101;BME280;61288;53.446;-2.266;2023-08-30T01:06:32;101458.88;;;11.22;100.00
73101;BME280;61288;53.446;-2.266;2023-08-30T01:09:01;101468.34;;;11.23;100.00
73101;BME280;61288;53.446;-2.266;2023-08-30T01:11:46;101470.94;;;11.23;100.00
73101;BME280;61288;53.446;-2.266;2023-08-30T01:14:18;101477.84;;;11.24;100.00
73101;BME280;61288;53.446;-2.266;2023-08-30T01:16:46;101475.25;;;11.24;100.00
73101;BME280;61288;53.446;-2.266;2023-08-30T01:22:18;101472.69;;;11.23;100.00
73101;BME280;61288;53.446;-2.266;2023-08-30T01:27:41;101471.94;;;11.19;100.00
73101;BME280;61288;53.446;-2.266;2023-08-30T01:30:09;101475.44;;;11.18;100.00
73101;BME280;61288;53.446;-2.266;2023-08-30T01:32:37;101480.63;;;11.18;100.00
73101;BME280;61288;53.446;-2.266;2023-08-30T01:35:05;101482.34;;;11.18;100.00
73101;BME280;61288;53.446;-2.266;2023-08-30T01:37:32;101480.72;;;11.15;100.00
73101;BME280;61288;53.446;-2.266;2023-08-30T01:39:59;101488.53;;;11.13;100.00
73101;BME280;61288;53.446;-2.266;2023-08-30T01:42:27;101479.13;;;11.11;100.00
73101;BME280;61288;53.446;-2.266;2023-08-30T01:44:54;101486.06;;;11.09;100.00
73101;BME280;61288;53.446;-2.266;2023-08-30T01:47:27;101481.88;;;11.05;100.00
73101;BME280;61288;53.446;-2.266;2023-08-30T01:49:53;101477.59;;;11.04;100.00
73101;BME280;61288;53.446;-2.266;2023-08-30T01:52:20;101475.00;;;11.04;100.00
73101;BME280;61288;53.446;-2.266;2023-08-30T01:54:46;101475.94;;;11.01;100.00
73101;BME280;61288;53.446;-2.266;2023-08-30T01:57:12;101475.97;;;11.00;100.00
73101;BME280;61288;53.446;-2.266;2023-08-30T01:59:38;101481.16;;;11.00;100.00
73101;BME280;61288;53.446;-2.266;2023-08-30T02:02:04;101482.88;;;11.01;100.00
73101;BME280;61288;53.446;-2.266;2023-08-30T02:04:30;101477.69;;;11.01;100.00
73101;BME280;61288;53.446;-2.266;2023-08-30T02:07:24;101485.47;;;11.01;100.00
73101;BME280;61288;53.446;-2.266;2023-08-30T02:09:57;101472.47;;;11.02;100.00
73101;BME280;61288;53.446;-2.266;2023-08-30T02:12:24;101472.41;;;11.04;100.00
73101;BME280;61288;53.446;-2.266;2023-08-30T02:14:57;101483.56;;;11.06;100.00
73101;BME280;61288;53.446;-2.266;2023-08-30T02:17:23;101486.16;;;11.06;100.00
73101;BME280;61288;53.446;-2.266;2023-08-30T02:19:50;101487.94;;;11.05;100.00
73101;BME280;61288;53.446;-2.266;2023-08-30T02:22:18;101492.25;;;11.05;100.00
73101;BME280;61288;53.446;-2.266;2023-08-30T02:24:44;101500.03;;;11.05;100.00
73101;BME280;61288;53.446;-2.266;2023-08-30T02:27:09;101501.81;;;11.03;100.00
73101;BME280;61288;53.446;-2.266;2023-08-30T02:29:35;101492.41;;;11.00;100.00
73101;BME280;61288;53.446;-2.266;2023-08-30T02:32:00;101493.41;;;10.96;100.00
73101;BME280;61288;53.446;-2.266;2023-08-30T02:34:26;101488.25;;;10.94;100.00
73101;BME280;61288;53.446;-2.266;2023-08-30T02:36:51;101478.84;;;10.90;100.00
73101;BME280;61288;53.446;-2.266;2023-08-30T02:39:17;101487.44;;;10.92;100.00
73101;BME280;61288;53.446;-2.266;2023-08-30T02:41:43;101486.56;;;10.92;100.00
73101;BME280;61288;53.446;-2.266;2023-08-30T02:44:10;101479.66;;;10.92;100.00
73101;BME280;61288;53.446;-2.266;2023-08-30T02:46:36;101486.53;;;10.93;100.00
73101;BME280;61288;53.446;-2.266;2023-08-30T02:49:03;101502.91;;;10.95;100.00
73101;BME280;61288;53.446;-2.266;2023-08-30T02:51:28;101501.16;;;10.96;100.00
73101;BME280;61288;53.446;-2.266;2023-08-30T02:53:54;101504.59;;;10.96;100.00
73101;BME280;61288;53.446;-2.266;2023-08-30T02:56:19;101511.47;;;10.97;100.00
73101;BME280;61288;53.446;-2.266;2023-08-30T02:58:45;101515.78;;;10.98;100.00
73101;BME280;61288;53.446;-2.266;2023-08-30T03:01:11;101521.84;;;10.97;100.00
73101;BME280;61288;53.446;-2.266;2023-08-30T03:03:36;101524.50;;;10.96;100.00
73101;BME280;61288;53.446;-2.266;2023-08-30T03:06:02;101525.34;;;10.96;100.00
73101;BME280;61288;53.446;-2.266;2023-08-30T03:08:32;101512.34;;;10.98;100.00
73101;BME280;61288;53.446;-2.266;2023-08-30T03:11:10;101512.38;;;10.96;100.00
73101;BME280;61288;53.446;-2.266;2023-08-30T03:13:36;101507.19;;;10.96;100.00
73101;BME280;61288;53.446;-2.266;2023-08-30T03:16:13;101504.59;;;10.96;100.00
73101;BME280;61288;53.446;-2.266;2023-08-30T03:18:40;101513.28;;;10.95;100.00
73101;BME280;61288;53.446;-2.266;2023-08-30T03:21:06;101509.06;;;10.91;100.00
73101;BME280;61288;53.446;-2.266;2023-08-30T03:23:33;101500.53;;;10.88;100.00
73101;BME280;61288;53.446;-2.266;2023-08-30T03:25:59;101502.28;;;10.87;100.00
73101;BME280;61288;53.446;-2.266;2023-08-30T03:28:28;101498.88;;;10.85;100.00
73101;BME280;61288;53.446;-2.266;2023-08-30T03:30:53;101495.44;;;10.84;100.00
73101;BME280;61288;53.446;-2.266;2023-08-30T03:33:19;101499.78;;;10.84;100.00
73101;BME280;61288;53.446;-2.266;2023-08-30T03:35:44;101492.03;;;10.82;100.00
73101;BME280;61288;53.446;-2.266;2023-08-30T03:38:10;101493.72;;;10.83;100.00
73101;BME280;61288;53.446;-2.266;2023-08-30T03:40:35;101496.38;;;10.82;100.00
73101;BME280;61288;53.446;-2.266;2023-08-30T03:43:01;101493.78;;;10.82;100.00
73101;BME280;61288;53.446;-2.266;2023-08-30T03:45:26;101501.50;;;10.83;100.00
73101;BME280;61288;53.446;-2.266;2023-08-30T03:47:52;101506.59;;;10.87;100.00
73101;BME280;61288;53.446;-2.266;2023-08-30T03:50:17;101504.97;;;10.84;100.00
73101;BME280;61288;53.446;-2.266;2023-08-30T03:52:43;101504.97;;;10.84;100.00
73101;BME280;61288;53.446;-2.266;2023-08-30T03:55:08;101504.91;;;10.86;100.00
73101;BME280;61288;53.446;-2.266;2023-08-30T03:57:34;101506.56;;;10.88;100.00
73101;BME280;61288;53.446;-2.266;2023-08-30T03:59:59;101516.94;;;10.88;100.00
73101;BME280;61288;53.446;-2.266;2023-08-30T04:02:25;101523.84;;;10.88;100.00
73101;BME280;61288;53.446;-2.266;2023-08-30T04:04:51;101525.56;;;10.89;100.00
73101;BME280;61288;53.446;-2.266;2023-08-30T04:07:16;101531.53;;;10.91;100.00
73101;BME280;61288;53.446;-2.266;2023-08-30T04:09:42;101531.53;;;10.91;100.00
73101;BME280;61288;53.446;-2.266;2023-08-30T04:12:07;101533.31;;;10.90;100.00
73101;BME280;61288;53.446;-2.266;2023-08-30T04:14:33;101543.69;;;10.90;100.00
73101;BME280;61288;53.446;-2.266;2023-08-30T04:16:59;101552.28;;;10.91;100.00
73101;BME280;61288;53.446;-2.266;2023-08-30T04:19:24;101553.19;;;10.90;100.00
73101;BME280;61288;53.446;-2.266;2023-08-30T04:21:50;101556.63;;;10.90;100.00
73101;BME280;61288;53.446;-2.266;2023-08-30T04:24:16;101559.25;;;10.89;100.00
73101;BME280;61288;53.446;-2.266;2023-08-30T04:26:42;101569.63;;;10.89;100.00
73101;BME280;61288;53.446;-2.266;2023-08-30T04:29:08;101567.94;;;10.88;100.00
73101;BME280;61288;53.446;-2.266;2023-08-30T04:31:34;101571.34;;;10.90;100.00
73101;BME280;61288;53.446;-2.266;2023-08-30T04:34:00;101567.03;;;10.89;100.00
73101;BME280;61288;53.446;-2.266;2023-08-30T04:36:26;101579.19;;;10.87;100.00
73101;BME280;61288;53.446;-2.266;2023-08-30T04:38:51;101580.97;;;10.86;100.00
73101;BME280;61288;53.446;-2.266;2023-08-30T04:41:17;101586.16;;;10.86;100.00
73101;BME280;61288;53.446;-2.266;2023-08-30T04:43:42;101578.44;;;10.83;100.00
73101;BME280;61288;53.446;-2.266;2023-08-30T04:46:08;101577.59;;;10.82;100.00
73101;BME280;61288;53.446;-2.266;2023-08-30T04:48:34;101582.81;;;10.81;100.00
73101;BME280;61288;53.446;-2.266;2023-08-30T04:51:03;101573.38;;;10.78;100.00
73101;BME280;61288;53.446;-2.266;2023-08-30T04:53:29;101576.06;;;10.75;100.00
73101;BME280;61288;53.446;-2.266;2023-08-30T04:55:56;101577.84;;;10.73;100.00
73101;BME280;61288;53.446;-2.266;2023-08-30T04:58:22;101581.31;;;10.72;100.00
73101;BME280;61288;53.446;-2.266;2023-08-30T05:00:48;101599.47;;;10.72;100.00
73101;BME280;61288;53.446;-2.266;2023-08-30T05:03:14;101602.91;;;10.73;100.00
73101;BME280;61288;53.446;-2.266;2023-08-30T05:05:44;101609.94;;;10.69;100.00
73101;BME280;61288;53.446;-2.266;2023-08-30T05:08:10;101615.94;;;10.69;100.00
73101;BME280;61288;53.446;-2.266;2023-08-30T05:10:36;101620.28;;;10.69;100.00
73101;BME280;61288;53.446;-2.266;2023-08-30T05:13:02;101626.38;;;10.68;100.00
73101;BME280;61288;53.446;-2.266;2023-08-30T05:15:29;101629.84;;;10.67;100.00
73101;BME280;61288;53.446;-2.266;2023-08-30T05:17:54;101634.22;;;10.65;100.00
73101;BME280;61288;53.446;-2.266;2023-08-30T05:20:20;101646.31;;;10.64;100.00
73101;BME280;61288;53.446;-2.266;2023-08-30T05:22:45;101652.38;;;10.65;100.00
73101;BME280;61288;53.446;-2.266;2023-08-30T05:25:11;101652.41;;;10.63;100.00
73101;BME280;61288;53.446;-2.266;2023-08-30T05:27:37;101650.69;;;10.62;100.00
73101;BME280;61288;53.446;-2.266;2023-08-30T05:30:03;101661.06;;;10.62;100.00
73101;BME280;61288;53.446;-2.266;2023-08-30T05:32:29;101664.53;;;10.61;100.00
73101;BME280;61288;53.446;-2.266;2023-08-30T05:34:55;101668.91;;;10.61;100.00
73101;BME280;61288;53.446;-2.266;2023-08-30T05:37:21;101676.59;;;10.64;100.00
73101;BME280;61288;53.446;-2.266;2023-08-30T05:39:47;101687.84;;;10.63;100.00
73101;BME280;61288;53.446;-2.266;2023-08-30T05:42:13;101688.69;;;10.63;100.00
73101;BME280;61288;53.446;-2.266;2023-08-30T05:44:38;101694.69;;;10.65;100.00
73101;BME280;61288;53.446;-2.266;2023-08-30T05:47:04;101708.50;;;10.66;100.00
73101;BME280;61288;53.446;-2.266;2023-08-30T05:49:30;101712.75;;;10.68;100.00
73101;BME280;61288;53.446;-2.266;2023-08-30T05:51:55;101717.94;;;10.68;100.00
73101;BME280;61288;53.446;-2.266;2023-08-30T05:54:21;101723.13;;;10.68;100.00
73101;BME280;61288;53.446;-2.266;2023-08-30T05:56:47;101726.56;;;10.69;100.00
73101;BME280;61288;53.446;-2.266;2023-08-30T05:59:12;101731.75;;;10.69;100.00
73101;BME280;61288;53.446;-2.266;2023-08-30T06:01:38;101736.06;;;10.68;100.00
73101;BME280;61288;53.446;-2.266;2023-08-30T06:04:04;101742.16;;;10.67;100.00
73101;BME280;61288;53.446;-2.266;2023-08-30T06:06:31;101730.94;;;10.67;100.00
73101;BME280;61288;53.446;-2.266;2023-08-30T06:08:57;101726.59;;;10.67;100.00
73101;BME280;61288;53.446;-2.266;2023-08-30T06:11:23;101733.47;;;10.68;100.00
73101;BME280;61288;53.446;-2.266;2023-08-30T06:13:48;101739.47;;;10.71;100.00
73101;BME280;61288;53.446;-2.266;2023-08-30T06:16:14;101741.16;;;10.73;100.00
73101;BME280;61288;53.446;-2.266;2023-08-30T06:18:40;101750.63;;;10.74;100.00
73101;BME280;61288;53.446;-2.266;2023-08-30T06:21:06;101739.41;;;10.74;100.00
73101;BME280;61288;53.446;-2.266;2023-08-30T06:23:33;101754.94;;;10.75;100.00
73101;BME280;61288;53.446;-2.266;2023-08-30T06:25:58;101766.09;;;10.79;100.00
73101;BME280;61288;53.446;-2.266;2023-08-30T06:28:25;101768.69;;;10.79;100.00
73101;BME280;61288;53.446;-2.266;2023-08-30T06:30:51;101779.88;;;10.79;100.00
73101;BME280;61288;53.446;-2.266;2023-08-30T06:33:17;101794.59;;;10.79;100.00
73101;BME280;61288;53.446;-2.266;2023-08-30T06:35:42;101792.91;;;10.78;100.00
73101;BME280;61288;53.446;-2.266;2023-08-30T06:38:08;101797.19;;;10.79;100.00
73101;BME280;61288;53.446;-2.266;2023-08-30T06:40:33;101798.94;;;10.78;100.00
73101;BME280;61288;53.446;-2.266;2023-08-30T06:42:59;101808.41;;;10.79;100.00
73101;BME280;61288;53.446;-2.266;2023-08-30T06:45:25;101808.47;;;10.76;100.00
73101;BME280;61288;53.446;-2.266;2023-08-30T06:47:51;101814.47;;;10.78;100.00
73101;BME280;61288;53.446;-2.266;2023-08-30T06:50:18;101817.00;;;10.81;100.00
73101;BME280;61288;53.446;-2.266;2023-08-30T06:52:43;101821.28;;;10.84;100.00
73101;BME280;61288;53.446;-2.266;2023-08-30T06:55:09;101832.47;;;10.86;100.00
73101;BME280;61288;53.446;-2.266;2023-08-30T06:57:34;101829.81;;;10.88;100.00
73101;BME280;61288;53.446;-2.266;2023-08-30T07:00:00;101831.50;;;10.90;100.00
73101;BME280;61288;53.446;-2.266;2023-08-30T07:02:34;101847.88;;;10.92;100.00
73101;BME280;61288;53.446;-2.266;2023-08-30T07:05:00;101843.50;;;10.94;100.00
73101;BME280;61288;53.446;-2.266;2023-08-30T07:07:25;101850.38;;;10.95;100.00
73101;BME280;61288;53.446;-2.266;2023-08-30T07:09:51;101852.13;;;10.95;100.00
73101;BME280;61288;53.446;-2.266;2023-08-30T07:12:16;101855.56;;;10.95;100.00
73101;BME280;61288;53.446;-2.266;2023-08-30T07:14:42;101847.78;;;10.95;100.00
73101;BME280;61288;53.446;-2.266;2023-08-30T07:17:07;101851.19;;;10.99;100.00
73101;BME280;61288;53.446;-2.266;2023-08-30T07:19:32;101860.69;;;10.98;100.00
73101;BME280;61288;53.446;-2.266;2023-08-30T07:22:01;101856.38;;;10.99;100.00
73101;BME280;61288;53.446;-2.266;2023-08-30T07:24:26;101859.78;;;11.01;100.00
73101;BME280;61288;53.446;-2.266;2023-08-30T07:26:51;101865.72;;;11.05;100.00
73101;BME280;61288;53.446;-2.266;2023-08-30T07:29:17;101871.78;;;11.05;100.00
73101;BME280;61288;53.446;-2.266;2023-08-30T07:31:43;101870.81;;;11.09;100.00
73101;BME280;61288;53.446;-2.266;2023-08-30T07:34:08;101875.09;;;11.10;100.00
73101;BME280;61288;53.446;-2.266;2023-08-30T07:36:34;101875.00;;;11.15;100.00
73101;BME280;61288;53.446;-2.266;2023-08-30T07:38:59;101887.78;;;11.23;100.00
73101;BME280;61288;53.446;-2.266;2023-08-30T07:41:24;101889.44;;;11.25;100.00
73101;BME280;61288;53.446;-2.266;2023-08-30T07:43:50;101897.13;;;11.30;100.00
73101;BME280;61288;53.446;-2.266;2023-08-30T07:46:16;101900.50;;;11.34;100.00
73101;BME280;61288;53.446;-2.266;2023-08-30T07:48:41;101905.59;;;11.37;100.00
73101;BME280;61288;53.446;-2.266;2023-08-30T07:51:06;101902.09;;;11.39;100.00
73101;BME280;61288;53.446;-2.266;2023-08-30T07:53:32;101896.91;;;11.38;100.00
73101;BME280;61288;53.446;-2.266;2023-08-30T07:55:58;101902.03;;;11.41;100.00
73101;BME280;61288;53.446;-2.266;2023-08-30T07:58:23;101896.00;;;11.40;100.00
73101;BME280;61288;53.446;-2.266;2023-08-30T08:00:52;101895.06;;;11.43;100.00
73101;BME280;61288;53.446;-2.266;2023-08-30T08:03:23;101898.41;;;11.48;100.00
73101;BME280;61288;53.446;-2.266;2023-08-30T08:05:48;101897.47;;;11.51;100.00
73101;BME280;61288;53.446;-2.266;2023-08-30T08:08:14;101898.19;;;11.58;100.00
73101;BME280;61288;53.446;-2.266;2023-08-30T08:10:41;101900.66;;;11.62;100.00
73101;BME280;61288;53.446;-2.266;2023-08-30T08:13:06;101918.53;;;11.73;100.00
73101;BME280;61288;53.446;-2.266;2023-08-30T08:15:32;101915.47;;;11.92;100.00
73101;BME280;61288;53.446;-2.266;2023-08-30T08:17:59;101928.84;;;12.11;100.00
73101;BME280;61288;53.446;-2.266;2023-08-30T08:20:25;101935.47;;;12.21;100.00
73101;BME280;61288;53.446;-2.266;2023-08-30T08:22:51;101949.94;;;12.32;100.00
73101;BME280;61288;53.446;-2.266;2023-08-30T08:25:17;101946.41;;;12.34;100.00
73101;BME280;61288;53.446;-2.266;2023-08-30T08:27:42;101942.97;;;12.34;100.00
73101;BME280;61288;53.446;-2.266;2023-08-30T08:30:08;101943.00;;;12.32;100.00
73101;BME280;61288;53.446;-2.266;2023-08-30T08:32:35;101922.19;;;12.32;100.00
73101;BME280;61288;53.446;-2.266;2023-08-30T08:35:01;101925.50;;;12.37;100.00
73101;BME280;61288;53.446;-2.266;2023-08-30T08:37:28;101927.88;;;12.47;100.00
73101;BME280;61288;53.446;-2.266;2023-08-30T08:39:53;101938.84;;;12.56;100.00
73101;BME280;61288;53.446;-2.266;2023-08-30T08:42:19;101933.47;;;12.63;100.00
73101;BME280;61288;53.446;-2.266;2023-08-30T08:44:51;101938.59;;;12.66;100.00
73101;BME280;61288;53.446;-2.266;2023-08-30T08:47:19;101931.72;;;12.63;100.00
73101;BME280;61288;53.446;-2.266;2023-08-30T08:49:46;101918.72;;;12.63;100.00
73101;BME280;61288;53.446;-2.266;2023-08-30T08:52:14;101916.81;;;12.68;100.00
73101;BME280;61288;53.446;-2.266;2023-08-30T08:54:40;101911.44;;;12.75;100.00
73101;BME280;61288;53.446;-2.266;2023-08-30T08:57:07;101911.28;;;12.81;100.00
73101;BME280;61288;53.446;-2.266;2023-08-30T08:59:33;101912.69;;;12.91;100.00
73101;BME280;61288;53.446;-2.266;2023-08-30T09:02:00;101916.84;;;12.97;100.00
73101;BME280;61288;53.446;-2.266;2023-08-30T09:04:29;101908.84;;;13.03;100.00
73101;BME280;61288;53.446;-2.266;2023-08-30T09:06:55;101892.78;;;13.17;100.00
73101;BME280;61288;53.446;-2.266;2023-08-30T09:09:21;101896.78;;;13.27;100.00
73101;BME280;61288;53.446;-2.266;2023-08-30T09:11:47;101898.88;;;13.45;100.00
73101;BME280;61288;53.446;-2.266;2023-08-30T09:14:12;101890.16;;;13.46;100.00
73101;BME280;61288;53.446;-2.266;2023-08-30T09:16:38;101870.41;;;13.38;100.00
73101;BME280;61288;53.446;-2.266;2023-08-30T09:19:04;101865.13;;;13.40;100.00
73101;BME280;61288;53.446;-2.266;2023-08-30T09:21:30;101877.03;;;13.49;100.00
73101;BME280;61288;53.446;-2.266;2023-08-30T09:24:04;101882.13;;;13.52;100.00
73101;BME280;61288;53.446;-2.266;2023-08-30T09:26:31;101893.31;;;13.55;100.00
73101;BME280;61288;53.446;-2.266;2023-08-30T09:29:07;101896.50;;;13.64;100.00
73101;BME280;61288;53.446;-2.266;2023-08-30T09:31:36;101891.59;;;13.54;100.00
73101;BME280;61288;53.446;-2.266;2023-08-30T09:34:06;101890.59;;;13.58;100.00
73101;BME280;61288;53.446;-2.266;2023-08-30T09:36:35;101872.81;;;13.70;100.00
73101;BME280;61288;53.446;-2.266;2023-08-30T09:41:34;101853.56;;;13.50;100.00
73101;BME280;61288;53.446;-2.266;2023-08-30T09:44:06;101860.34;;;13.54;100.00
73101;BME280;61288;53.446;-2.266;2023-08-30T09:46:32;101853.66;;;13.72;100.00
73101;BME280;61288;53.446;-2.266;2023-08-30T09:49:05;101847.47;;;13.75;100.00
73101;BME280;61288;53.446;-2.266;2023-08-30T09:51:31;101823.97;;;13.77;100.00
73101;BME280;61288;53.446;-2.266;2023-08-30T09:54:01;101805.28;;;13.65;100.00
73101;BME280;61288;53.446;-2.266;2023-08-30T09:56:29;101789.78;;;13.62;100.00
73101;BME280;61288;53.446;-2.266;2023-08-30T09:58:56;101761.53;;;13.51;100.00
73101;BME280;61288;53.446;-2.266;2023-08-30T10:01:26;101725.00;;;13.53;100.00
73101;BME280;61288;53.446;-2.266;2023-08-30T10:03:54;101671.28;;;13.50;100.00
73101;BME280;61288;53.446;-2.266;2023-08-30T10:06:20;101625.09;;;13.55;100.00
73101;BME280;61288;53.446;-2.266;2023-08-30T10:08:48;101600.00;;;13.75;100.00
73101;BME280;61288;53.446;-2.266;2023-08-30T10:11:16;101567.41;;;13.87;100.00
73101;BME280;61288;53.446;-2.266;2023-08-30T10:13:44;101547.97;;;13.96;100.00
73101;BME280;61288;53.446;-2.266;2023-08-30T10:16:12;101506.94;;;14.01;100.00
73101;BME280;61288;53.446;-2.266;2023-08-30T10:18:43;101491.13;;;14.06;100.00
73101;BME280;61288;53.446;-2.266;2023-08-30T10:21:12;101465.78;;;13.89;100.00
73101;BME280;61288;53.446;-2.266;2023-08-30T10:23:39;101440.13;;;13.79;100.00
73101;BME280;61288;53.446;-2.266;2023-08-30T10:26:05;101402.59;;;13.63;100.00
73101;BME280;61288;53.446;-2.266;2023-08-30T10:28:32;101387.75;;;13.44;100.00
73101;BME280;61288;53.446;-2.266;2023-08-30T10:30:59;101386.66;;;13.50;100.00
73101;BME280;61288;53.446;-2.266;2023-08-30T10:33:25;101374.00;;;13.40;100.00
73101;BME280;61288;53.446;-2.266;2023-08-30T10:35:51;101341.88;;;13.40;100.00
73101;BME280;61288;53.446;-2.266;2023-08-30T10:38:27;101329.81;;;13.60;100.00
73101;BME280;61288;53.446;-2.266;2023-08-30T10:40:54;101329.09;;;13.77;100.00
73101;BME280;61288;53.446;-2.266;2023-08-30T10:43:34;101343.16;;;14.12;100.00
73101;BME280;61288;53.446;-2.266;2023-08-30T10:46:05;101309.34;;;14.30;100.00
73101;BME280;61288;53.446;-2.266;2023-08-30T10:48:39;101308.25;;;14.53;100.00
73101;BME280;61288;53.446;-2.266;2023-08-30T10:51:18;101309.66;;;14.97;100.00
73101;BME280;61288;53.446;-2.266;2023-08-30T10:53:58;101306.81;;;15.37;100.00
73101;BME280;61288;53.446;-2.266;2023-08-30T10:56:28;101281.56;;;15.54;100.00
73101;BME280;61288;53.446;-2.266;2023-08-30T10:58:54;101278.38;;;15.49;100.00
73101;BME280;61288;53.446;-2.266;2023-08-30T11:01:20;101262.84;;;15.45;100.00
73101;BME280;61288;53.446;-2.266;2023-08-30T11:03:45;101236.09;;;15.24;100.00
73101;BME280;61288;53.446;-2.266;2023-08-30T11:06:14;101234.03;;;15.13;100.00
73101;BME280;61288;53.446;-2.266;2023-08-30T11:08:41;101287.59;;;15.38;100.00
73101;BME280;61288;53.446;-2.266;2023-08-30T11:11:08;101297.63;;;15.64;100.00
73101;BME280;61288;53.446;-2.266;2023-08-30T11:13:38;101300.16;;;15.99;100.00
73101;BME280;61288;53.446;-2.266;2023-08-30T11:16:03;101283.72;;;16.13;100.00
73101;BME280;61288;53.446;-2.266;2023-08-30T11:18:39;101277.56;;;16.30;100.00
73101;BME280;61288;53.446;-2.266;2023-08-30T11:21:07;101269.63;;;16.48;100.00
73101;BME280;61288;53.446;-2.266;2023-08-30T11:23:34;101266.13;;;16.63;100.00
73101;BME280;61288;53.446;-2.266;2023-08-30T11:26:00;101256.72;;;16.75;100.00
73101;BME280;61288;53.446;-2.266;2023-08-30T11:28:29;101259.66;;;17.01;100.00
73101;BME280;61288;53.446;-2.266;2023-08-30T11:30:55;101244.56;;;17.04;100.00
73101;BME280;61288;53.446;-2.266;2023-08-30T11:33:21;101259.09;;;17.10;100.00
73101;BME280;61288;53.446;-2.266;2023-08-30T11:35:51;101250.94;;;17.00;100.00
73101;BME280;61288;53.446;-2.266;2023-08-30T11:38:18;101237.84;;;17.00;100.00
73101;BME280;61288;53.446;-2.266;2023-08-30T11:40:45;101260.03;;;17.09;100.00
73101;BME280;61288;53.446;-2.266;2023-08-30T11:43:11;101261.06;;;17.21;100.00
73101;BME280;61288;53.446;-2.266;2023-08-30T11:45:36;101252.03;;;16.96;100.00
73101;BME280;61288;53.446;-2.266;2023-08-30T11:48:02;101257.81;;;16.87;100.00
73101;BME280;61288;53.446;-2.266;2023-08-30T11:50:28;101253.91;;;16.64;100.00
73101;BME280;61288;53.446;-2.266;2023-08-30T11:52:55;101263.69;;;16.60;100.00
73101;BME280;61288;53.446;-2.266;2023-08-30T11:55:21;101256.59;;;16.62;100.00
73101;BME280;61288;53.446;-2.266;2023-08-30T11:57:50;101256.88;;;16.57;100.00
73101;BME280;61288;53.446;-2.266;2023-08-30T12:00:19;101249.47;;;16.34;100.00
73101;BME280;61288;53.446;-2.266;2023-08-30T12:02:46;101252.69;;;16.07;100.00
73101;BME280;61288;53.446;-2.266;2023-08-30T12:05:15;101256.88;;;15.77;100.00
73101;BME280;61288;53.446;-2.266;2023-08-30T12:07:41;101263.41;;;15.52;100.00
73101;BME280;61288;53.446;-2.266;2023-08-30T12:10:09;101264.09;;;15.38;100.00
73101;BME280;61288;53.446;-2.266;2023-08-30T12:12:36;101281.47;;;15.22;100.00
73101;BME280;61288;53.446;-2.266;2023-08-30T12:15:12;101291.72;;;15.09;100.00
73101;BME280;61288;53.446;-2.266;2023-08-30T12:17:38;101297.00;;;15.07;100.00
73101;BME280;61288;53.446;-2.266;2023-08-30T12:20:04;101296.97;;;15.42;100.00
73101;BME280;61288;53.446;-2.266;2023-08-30T12:22:39;101289.97;;;15.77;100.00
73101;BME280;61288;53.446;-2.266;2023-08-30T12:25:20;101280.84;;;15.68;100.00
73101;BME280;61288;53.446;-2.266;2023-08-30T12:27:46;101274.22;;;15.62;100.00
73101;BME280;61288;53.446;-2.266;2023-08-30T12:30:13;101281.19;;;15.62;100.00
73101;BME280;61288;53.446;-2.266;2023-08-30T12:32:40;101298.31;;;16.01;100.00
73101;BME280;61288;53.446;-2.266;2023-08-30T12:35:05;101280.13;;;16.15;100.00
73101;BME280;61288;53.446;-2.266;2023-08-30T12:37:31;101279.44;;;16.12;100.00